sensor_id;sensor_type;location;lat;lon;timestamp;temperature;humidity
6106;DHT22;3083;51.508;7.966;2023-06-14T00:02:23;15.70;99.90
6106;DHT22;3083;51.508;7.966;2023-06-14T00:04:50;15.60;99.90
6106;DHT22;3083;51.508;7.966;2023-06-14T00:07:18;15.40;99.90
6106;DHT22;3083;51.508;7.966;2023-06-14T00:09:45;15.30;99.90
6106;DHT22;3083;51.508;7.966;2023-06-14T00:12:12;15.20;99.90
6106;DHT22;3083;51.508;7.966;2023-06-14T00:14:39;15.00;99.90
6106;DHT22;3083;51.508;7.966;2023-06-14T00:17:07;15.00;99.90
6106;DHT22;3083;51.508;7.966;2023-06-14T00:19:34;14.90;99.90
6106;DHT22;3083;51.508;7.966;2023-06-14T00:22:02;14.80;99.90
6106;DHT22;3083;51.508;7.966;2023-06-14T00:24:29;14.70;99.90
6106;DHT22;3083;51.508;7.966;2023-06-14T00:26:55;14.60;99.90
6106;DHT22;3083;51.508;7.966;2023-06-14T00:29:22;14.60;99.90
6106;DHT22;3083;51.508;7.966;2023-06-14T00:31:49;14.50;99.90
6106;DHT22;3083;51.508;7.966;2023-06-14T00:34:17;14.40;99.90
6106;DHT22;3083;51.508;7.966;2023-06-14T00:36:44;14.30;99.90
6106;DHT22;3083;51.508;7.966;2023-06-14T00:39:11;14.30;99.90
6106;DHT22;3083;51.508;7.966;2023-06-14T00:41:38;14.20;99.90
6106;DHT22;3083;51.508;7.966;2023-06-14T00:44:05;14.20;99.90
6106;DHT22;3083;51.508;7.966;2023-06-14T00:46:32;14.20;99.90
6106;DHT22;3083;51.508;7.966;2023-06-14T00:49:00;14.20;99.90
6106;DHT22;3083;51.508;7.966;2023-06-14T00:51:29;14.20;99.90
6106;DHT22;3083;51.508;7.966;2023-06-14T00:53:56;14.20;99.90
6106;DHT22;3083;51.508;7.966;2023-06-14T00:56:22;14.20;99.90
6106;DHT22;3083;51.508;7.966;2023-06-14T00:58:50;14.20;99.90
6106;DHT22;3083;51.508;7.966;2023-06-14T01:01:17;14.10;99.90
6106;DHT22;3083;51.508;7.966;2023-06-14T01:03:44;14.10;99.90
6106;DHT22;3083;51.508;7.966;2023-06-14T01:06:18;14.00;99.90
6106;DHT22;3083;51.508;7.966;2023-06-14T01:09:00;14.00;99.90
6106;DHT22;3083;51.508;7.966;2023-06-14T01:11:35;14.00;99.90
6106;DHT22;3083;51.508;7.966;2023-06-14T01:14:04;14.00;99.90
6106;DHT22;3083;51.508;7.966;2023-06-14T01:16:33;14.00;99.90
6106;DHT22;3083;51.508;7.966;2023-06-14T01:19:01;14.00;99.90
6106;DHT22;3083;51.508;7.966;2023-06-14T01:21:28;14.00;99.90
6106;DHT22;3083;51.508;7.966;2023-06-14T01:23:56;14.00;99.90
6106;DHT22;3083;51.508;7.966;2023-06-14T01:26:24;14.00;99.90
6106;DHT22;3083;51.508;7.966;2023-06-14T01:28:52;14.00;99.90
6106;DHT22;3083;51.508;7.966;2023-06-14T01:31:24;13.90;99.90
6106;DHT22;3083;51.508;7.966;2023-06-14T01:33:52;13.80;99.90
6106;DHT22;3083;51.508;7.966;2023-06-14T01:36:20;13.80;99.90
6106;DHT22;3083;51.508;7.966;2023-06-14T01:38:48;13.90;99.90
6106;DHT22;3083;51.508;7.966;2023-06-14T01:41:18;13.90;99.90
6106;DHT22;3083;51.508;7.966;2023-06-14T01:43:47;14.00;99.90
6106;DHT22;3083;51.508;7.966;2023-06-14T01:46:15;14.00;99.90
6106;DHT22;3083;51.508;7.966;2023-06-14T01:48:43;14.00;99.90
6106;DHT22;3083;51.508;7.966;2023-06-14T01:51:10;14.10;99.90
6106;DHT22;3083;51.508;7.966;2023-06-14T01:53:37;14.10;99.90
6106;DHT22;3083;51.508;7.966;2023-06-14T01:56:04;14.10;99.90
6106;DHT22;3083;51.508;7.966;2023-06-14T01:58:33;14.10;99.90
6106;DHT22;3083;51.508;7.966;2023-06-14T02:01:01;14.10;99.90
6106;DHT22;3083;51.508;7.966;2023-06-14T02:03:27;14.20;99.90
6106;DHT22;3083;51.508;7.966;2023-06-14T02:05:55;14.20;99.90
6106;DHT22;3083;51.508;7.966;2023-06-14T02:08:22;14.20;99.90
6106;DHT22;3083;51.508;7.966;2023-06-14T02:10:49;14.20;99.90
6106;DHT22;3083;51.508;7.966;2023-06-14T02:13:16;14.10;99.90
6106;DHT22;3083;51.508;7.966;2023-06-14T02:15:44;14.10;99.90
6106;DHT22;3083;51.508;7.966;2023-06-14T02:18:12;14.10;99.90
6106;DHT22;3083;51.508;7.966;2023-06-14T02:20:39;14.10;99.90
6106;DHT22;3083;51.508;7.966;2023-06-14T02:23:05;14.10;99.90
6106;DHT22;3083;51.508;7.966;2023-06-14T02:25:33;14.20;99.90
6106;DHT22;3083;51.508;7.966;2023-06-14T02:28:00;14.20;99.90
6106;DHT22;3083;51.508;7.966;2023-06-14T02:30:27;14.20;99.90
6106;DHT22;3083;51.508;7.966;2023-06-14T02:32:55;14.20;99.90
6106;DHT22;3083;51.508;7.966;2023-06-14T02:35:22;14.30;99.90
6106;DHT22;3083;51.508;7.966;2023-06-14T02:37:51;14.30;99.90
6106;DHT22;3083;51.508;7.966;2023-06-14T02:40:19;14.30;99.90
6106;DHT22;3083;51.508;7.966;2023-06-14T02:42:46;14.30;99.90
6106;DHT22;3083;51.508;7.966;2023-06-14T02:45:13;14.30;99.90
6106;DHT22;3083;51.508;7.966;2023-06-14T02:47:40;14.40;99.90
6106;DHT22;3083;51.508;7.966;2023-06-14T02:50:09;14.40;99.90
6106;DHT22;3083;51.508;7.966;2023-06-14T02:52:36;14.40;99.90
6106;DHT22;3083;51.508;7.966;2023-06-14T02:55:04;14.40;99.90
6106;DHT22;3083;51.508;7.966;2023-06-14T02:57:31;14.40;99.90
6106;DHT22;3083;51.508;7.966;2023-06-14T02:59:58;14.40;99.90
6106;DHT22;3083;51.508;7.966;2023-06-14T03:02:26;14.30;99.90
6106;DHT22;3083;51.508;7.966;2023-06-14T03:04:52;14.20;99.90
6106;DHT22;3083;51.508;7.966;2023-06-14T03:07:21;14.10;99.90
6106;DHT22;3083;51.508;7.966;2023-06-14T03:09:48;14.00;99.90
6106;DHT22;3083;51.508;7.966;2023-06-14T03:12:15;14.10;99.90
6106;DHT22;3083;51.508;7.966;2023-06-14T03:14:42;14.00;99.90
6106;DHT22;3083;51.508;7.966;2023-06-14T03:17:11;14.00;99.90
6106;DHT22;3083;51.508;7.966;2023-06-14T03:19:38;14.00;99.90
6106;DHT22;3083;51.508;7.966;2023-06-14T03:22:06;14.00;99.90
6106;DHT22;3083;51.508;7.966;2023-06-14T03:24:35;14.00;99.90
6106;DHT22;3083;51.508;7.966;2023-06-14T03:27:03;14.00;99.90
6106;DHT22;3083;51.508;7.966;2023-06-14T03:29:30;13.90;99.90
6106;DHT22;3083;51.508;7.966;2023-06-14T03:31:58;13.70;99.90
6106;DHT22;3083;51.508;7.966;2023-06-14T03:34:25;13.60;99.90
6106;DHT22;3083;51.508;7.966;2023-06-14T03:36:52;13.40;99.90
6106;DHT22;3083;51.508;7.966;2023-06-14T03:39:19;13.30;99.90
6106;DHT22;3083;51.508;7.966;2023-06-14T03:41:47;13.30;99.90
6106;DHT22;3083;51.508;7.966;2023-06-14T03:44:16;13.30;99.90
6106;DHT22;3083;51.508;7.966;2023-06-14T03:46:43;13.20;99.90
6106;DHT22;3083;51.508;7.966;2023-06-14T03:49:10;13.20;99.90
6106;DHT22;3083;51.508;7.966;2023-06-14T03:51:37;13.20;99.90
6106;DHT22;3083;51.508;7.966;2023-06-14T03:54:05;13.20;99.90
6106;DHT22;3083;51.508;7.966;2023-06-14T03:56:32;13.20;99.90
6106;DHT22;3083;51.508;7.966;2023-06-14T03:59:00;13.10;99.90
6106;DHT22;3083;51.508;7.966;2023-06-14T04:01:27;13.10;99.90
6106;DHT22;3083;51.508;7.966;2023-06-14T04:03:55;13.20;99.90
6106;DHT22;3083;51.508;7.966;2023-06-14T04:06:23;13.20;99.90
6106;DHT22;3083;51.508;7.966;2023-06-14T04:08:50;13.20;99.90
6106;DHT22;3083;51.508;7.966;2023-06-14T04:11:17;13.20;99.90
6106;DHT22;3083;51.508;7.966;2023-06-14T04:13:45;13.30;99.90
6106;DHT22;3083;51.508;7.966;2023-06-14T04:16:13;13.30;99.90
6106;DHT22;3083;51.508;7.966;2023-06-14T04:18:40;13.40;99.90
6106;DHT22;3083;51.508;7.966;2023-06-14T04:21:07;13.30;99.90
6106;DHT22;3083;51.508;7.966;2023-06-14T04:23:34;13.40;99.90
6106;DHT22;3083;51.508;7.966;2023-06-14T04:26:01;13.40;99.90
6106;DHT22;3083;51.508;7.966;2023-06-14T04:28:28;13.50;99.90
6106;DHT22;3083;51.508;7.966;2023-06-14T04:30:55;13.60;99.90
6106;DHT22;3083;51.508;7.966;2023-06-14T04:33:24;13.60;99.90
6106;DHT22;3083;51.508;7.966;2023-06-14T04:35:50;13.70;99.90
6106;DHT22;3083;51.508;7.966;2023-06-14T04:38:19;13.70;99.90
6106;DHT22;3083;51.508;7.966;2023-06-14T04:40:50;13.80;99.90
6106;DHT22;3083;51.508;7.966;2023-06-14T04:43:18;13.80;99.90
6106;DHT22;3083;51.508;7.966;2023-06-14T04:45:50;13.70;99.90
6106;DHT22;3083;51.508;7.966;2023-06-14T04:48:17;13.80;99.90
6106;DHT22;3083;51.508;7.966;2023-06-14T04:50:47;13.80;99.90
6106;DHT22;3083;51.508;7.966;2023-06-14T04:53:18;13.80;99.90
6106;DHT22;3083;51.508;7.966;2023-06-14T04:55:47;13.80;99.90
6106;DHT22;3083;51.508;7.966;2023-06-14T04:58:14;13.90;99.90
6106;DHT22;3083;51.508;7.966;2023-06-14T05:00:41;13.90;99.90
6106;DHT22;3083;51.508;7.966;2023-06-14T05:03:09;14.00;99.90
6106;DHT22;3083;51.508;7.966;2023-06-14T05:05:39;14.10;99.90
6106;DHT22;3083;51.508;7.966;2023-06-14T05:08:07;14.20;99.90
6106;DHT22;3083;51.508;7.966;2023-06-14T05:10:34;14.20;99.90
6106;DHT22;3083;51.508;7.966;2023-06-14T05:13:02;14.30;99.90
6106;DHT22;3083;51.508;7.966;2023-06-14T05:15:28;14.40;99.90
6106;DHT22;3083;51.508;7.966;2023-06-14T05:17:55;14.40;99.90
6106;DHT22;3083;51.508;7.966;2023-06-14T05:20:22;14.50;99.90
6106;DHT22;3083;51.508;7.966;2023-06-14T05:22:50;14.60;99.90
6106;DHT22;3083;51.508;7.966;2023-06-14T05:25:19;14.60;99.90
6106;DHT22;3083;51.508;7.966;2023-06-14T05:27:46;14.70;99.90
6106;DHT22;3083;51.508;7.966;2023-06-14T05:30:14;14.80;99.90
6106;DHT22;3083;51.508;7.966;2023-06-14T05:32:41;14.90;99.90
6106;DHT22;3083;51.508;7.966;2023-06-14T05:35:09;15.00;99.90
6106;DHT22;3083;51.508;7.966;2023-06-14T05:37:36;15.00;99.90
6106;DHT22;3083;51.508;7.966;2023-06-14T05:40:03;15.10;99.90
6106;DHT22;3083;51.508;7.966;2023-06-14T05:42:33;15.20;99.90
6106;DHT22;3083;51.508;7.966;2023-06-14T05:45:00;15.30;99.90
6106;DHT22;3083;51.508;7.966;2023-06-14T05:47:27;15.50;99.90
6106;DHT22;3083;51.508;7.966;2023-06-14T05:49:54;15.80;99.90
6106;DHT22;3083;51.508;7.966;2023-06-14T05:52:21;16.10;99.90
6106;DHT22;3083;51.508;7.966;2023-06-14T05:54:51;16.50;99.90
6106;DHT22;3083;51.508;7.966;2023-06-14T05:57:17;17.00;99.90
6106;DHT22;3083;51.508;7.966;2023-06-14T05:59:46;17.40;99.90
6106;DHT22;3083;51.508;7.966;2023-06-14T06:02:13;17.90;99.90
6106;DHT22;3083;51.508;7.966;2023-06-14T06:04:39;18.30;99.90
6106;DHT22;3083;51.508;7.966;2023-06-14T06:07:06;18.70;99.90
6106;DHT22;3083;51.508;7.966;2023-06-14T06:09:33;19.10;99.90
6106;DHT22;3083;51.508;7.966;2023-06-14T06:12:00;19.60;99.90
6106;DHT22;3083;51.508;7.966;2023-06-14T06:14:27;19.90;99.90
6106;DHT22;3083;51.508;7.966;2023-06-14T06:16:55;20.20;99.90
6106;DHT22;3083;51.508;7.966;2023-06-14T06:19:22;20.50;99.90
6106;DHT22;3083;51.508;7.966;2023-06-14T06:21:49;20.70;99.90
6106;DHT22;3083;51.508;7.966;2023-06-14T06:24:16;21.00;99.90
6106;DHT22;3083;51.508;7.966;2023-06-14T06:26:42;21.10;99.90
6106;DHT22;3083;51.508;7.966;2023-06-14T06:29:09;21.40;99.90
6106;DHT22;3083;51.508;7.966;2023-06-14T06:31:37;21.70;99.90
6106;DHT22;3083;51.508;7.966;2023-06-14T06:34:05;21.90;99.90
6106;DHT22;3083;51.508;7.966;2023-06-14T06:36:32;22.00;99.90
6106;DHT22;3083;51.508;7.966;2023-06-14T06:38:58;22.20;99.90
6106;DHT22;3083;51.508;7.966;2023-06-14T06:41:25;22.50;99.90
6106;DHT22;3083;51.508;7.966;2023-06-14T06:43:52;22.70;99.90
6106;DHT22;3083;51.508;7.966;2023-06-14T06:46:19;23.00;99.90
6106;DHT22;3083;51.508;7.966;2023-06-14T06:48:46;23.10;99.90
6106;DHT22;3083;51.508;7.966;2023-06-14T06:51:14;23.20;99.90
6106;DHT22;3083;51.508;7.966;2023-06-14T06:53:42;23.00;99.90
6106;DHT22;3083;51.508;7.966;2023-06-14T06:56:09;23.00;99.90
6106;DHT22;3083;51.508;7.966;2023-06-14T06:58:36;23.00;99.90
6106;DHT22;3083;51.508;7.966;2023-06-14T07:01:03;23.20;99.90
6106;DHT22;3083;51.508;7.966;2023-06-14T07:03:30;23.30;99.90
6106;DHT22;3083;51.508;7.966;2023-06-14T07:05:57;23.40;99.90
6106;DHT22;3083;51.508;7.966;2023-06-14T07:08:25;23.30;99.90
6106;DHT22;3083;51.508;7.966;2023-06-14T07:10:52;23.50;99.90
6106;DHT22;3083;51.508;7.966;2023-06-14T07:13:19;23.30;99.90
6106;DHT22;3083;51.508;7.966;2023-06-14T07:15:46;23.40;99.90
6106;DHT22;3083;51.508;7.966;2023-06-14T07:18:13;23.40;99.90
6106;DHT22;3083;51.508;7.966;2023-06-14T07:20:40;23.40;99.90
6106;DHT22;3083;51.508;7.966;2023-06-14T07:23:08;23.50;99.90
6106;DHT22;3083;51.508;7.966;2023-06-14T07:25:37;23.70;99.90
6106;DHT22;3083;51.508;7.966;2023-06-14T07:28:04;23.80;99.90
6106;DHT22;3083;51.508;7.966;2023-06-14T07:30:31;23.70;99.90
6106;DHT22;3083;51.508;7.966;2023-06-14T07:32:58;23.70;99.90
6106;DHT22;3083;51.508;7.966;2023-06-14T07:35:24;23.70;99.90
6106;DHT22;3083;51.508;7.966;2023-06-14T07:37:51;23.60;99.90
6106;DHT22;3083;51.508;7.966;2023-06-14T07:40:18;23.60;99.90
6106;DHT22;3083;51.508;7.966;2023-06-14T07:42:47;23.50;99.90
6106;DHT22;3083;51.508;7.966;2023-06-14T07:45:15;23.70;99.90
6106;DHT22;3083;51.508;7.966;2023-06-14T07:47:42;23.90;99.90
6106;DHT22;3083;51.508;7.966;2023-06-14T07:50:09;24.00;99.90
6106;DHT22;3083;51.508;7.966;2023-06-14T07:52:37;24.20;99.90
6106;DHT22;3083;51.508;7.966;2023-06-14T07:55:05;24.20;99.90
6106;DHT22;3083;51.508;7.966;2023-06-14T07:57:32;24.00;99.90
6106;DHT22;3083;51.508;7.966;2023-06-14T08:00:00;23.90;99.90
6106;DHT22;3083;51.508;7.966;2023-06-14T08:02:27;23.90;99.90
6106;DHT22;3083;51.508;7.966;2023-06-14T08:04:54;23.90;99.90
6106;DHT22;3083;51.508;7.966;2023-06-14T08:07:21;24.10;99.90
6106;DHT22;3083;51.508;7.966;2023-06-14T08:09:48;24.10;99.90
6106;DHT22;3083;51.508;7.966;2023-06-14T08:12:15;23.90;99.90
6106;DHT22;3083;51.508;7.966;2023-06-14T08:14:42;23.70;99.90
6106;DHT22;3083;51.508;7.966;2023-06-14T08:17:10;23.50;99.90
6106;DHT22;3083;51.508;7.966;2023-06-14T08:19:37;23.30;99.90
6106;DHT22;3083;51.508;7.966;2023-06-14T08:22:04;23.50;99.90
6106;DHT22;3083;51.508;7.966;2023-06-14T08:24:31;23.60;99.90
6106;DHT22;3083;51.508;7.966;2023-06-14T08:26:58;23.70;99.90
6106;DHT22;3083;51.508;7.966;2023-06-14T08:29:26;23.90;99.90
6106;DHT22;3083;51.508;7.966;2023-06-14T08:31:54;23.80;99.90
6106;DHT22;3083;51.508;7.966;2023-06-14T08:34:23;23.70;99.90
6106;DHT22;3083;51.508;7.966;2023-06-14T08:36:50;23.60;99.90
6106;DHT22;3083;51.508;7.966;2023-06-14T08:39:17;23.40;99.90
6106;DHT22;3083;51.508;7.966;2023-06-14T08:41:46;23.30;99.90
6106;DHT22;3083;51.508;7.966;2023-06-14T08:44:13;23.20;99.90
6106;DHT22;3083;51.508;7.966;2023-06-14T08:46:41;23.10;99.90
6106;DHT22;3083;51.508;7.966;2023-06-14T08:49:11;23.00;99.90
6106;DHT22;3083;51.508;7.966;2023-06-14T08:51:40;23.00;99.90
6106;DHT22;3083;51.508;7.966;2023-06-14T08:54:07;23.10;99.90
6106;DHT22;3083;51.508;7.966;2023-06-14T08:56:37;23.20;99.90
6106;DHT22;3083;51.508;7.966;2023-06-14T08:59:06;23.20;99.90
6106;DHT22;3083;51.508;7.966;2023-06-14T09:01:34;23.30;99.90
6106;DHT22;3083;51.508;7.966;2023-06-14T09:04:01;23.30;99.90
6106;DHT22;3083;51.508;7.966;2023-06-14T09:06:30;23.30;99.90
6106;DHT22;3083;51.508;7.966;2023-06-14T09:08:59;23.40;99.90
6106;DHT22;3083;51.508;7.966;2023-06-14T09:11:27;23.40;99.90
6106;DHT22;3083;51.508;7.966;2023-06-14T09:13:54;23.30;99.90
6106;DHT22;3083;51.508;7.966;2023-06-14T09:16:21;23.30;99.90
6106;DHT22;3083;51.508;7.966;2023-06-14T09:18:48;23.50;99.90
6106;DHT22;3083;51.508;7.966;2023-06-14T09:21:16;23.70;99.90
6106;DHT22;3083;51.508;7.966;2023-06-14T09:23:45;23.70;99.90
6106;DHT22;3083;51.508;7.966;2023-06-14T09:26:14;23.70;99.90
6106;DHT22;3083;51.508;7.966;2023-06-14T09:28:42;23.80;99.90
6106;DHT22;3083;51.508;7.966;2023-06-14T09:31:10;23.70;99.90
6106;DHT22;3083;51.508;7.966;2023-06-14T09:33:37;23.70;99.90
6106;DHT22;3083;51.508;7.966;2023-06-14T09:36:04;23.70;99.90
6106;DHT22;3083;51.508;7.966;2023-06-14T09:38:36;23.80;99.90
6106;DHT22;3083;51.508;7.966;2023-06-14T09:41:04;23.70;99.90
6106;DHT22;3083;51.508;7.966;2023-06-14T09:43:33;23.70;99.90
6106;DHT22;3083;51.508;7.966;2023-06-14T09:46:01;23.70;99.90
6106;DHT22;3083;51.508;7.966;2023-06-14T09:48:28;23.70;99.90
6106;DHT22;3083;51.508;7.966;2023-06-14T09:50:55;23.80;99.90
6106;DHT22;3083;51.508;7.966;2023-06-14T09:53:24;23.80;99.90
6106;DHT22;3083;51.508;7.966;2023-06-14T09:55:52;23.90;99.90
6106;DHT22;3083;51.508;7.966;2023-06-14T09:58:23;24.00;99.90
6106;DHT22;3083;51.508;7.966;2023-06-14T10:00:54;24.20;99.90
6106;DHT22;3083;51.508;7.966;2023-06-14T10:03:25;24.40;99.90
6106;DHT22;3083;51.508;7.966;2023-06-14T10:05:55;24.40;99.90
6106;DHT22;3083;51.508;7.966;2023-06-14T10:08:27;24.50;99.90
6106;DHT22;3083;51.508;7.966;2023-06-14T10:10:58;24.60;99.90
6106;DHT22;3083;51.508;7.966;2023-06-14T10:13:26;24.70;99.90
6106;DHT22;3083;51.508;7.966;2023-06-14T10:16:00;24.90;99.90
6106;DHT22;3083;51.508;7.966;2023-06-14T10:18:35;24.70;99.90
6106;DHT22;3083;51.508;7.966;2023-06-14T10:21:16;24.70;99.90
6106;DHT22;3083;51.508;7.966;2023-06-14T10:23:44;24.70;99.90
6106;DHT22;3083;51.508;7.966;2023-06-14T10:26:19;24.60;99.90
6106;DHT22;3083;51.508;7.966;2023-06-14T10:28:56;24.50;99.90
6106;DHT22;3083;51.508;7.966;2023-06-14T10:31:40;24.60;99.90
6106;DHT22;3083;51.508;7.966;2023-06-14T10:34:07;24.50;99.90
6106;DHT22;3083;51.508;7.966;2023-06-14T10:36:34;24.70;99.90
6106;DHT22;3083;51.508;7.966;2023-06-14T10:39:04;24.70;99.90
6106;DHT22;3083;51.508;7.966;2023-06-14T10:41:34;24.50;99.90
6106;DHT22;3083;51.508;7.966;2023-06-14T10:47:31;24.50;99.90
6106;DHT22;3083;51.508;7.966;2023-06-14T10:50:04;24.60;99.90
6106;DHT22;3083;51.508;7.966;2023-06-14T10:52:33;24.60;99.90
6106;DHT22;3083;51.508;7.966;2023-06-14T10:55:11;24.50;99.90
6106;DHT22;3083;51.508;7.966;2023-06-14T10:57:41;24.50;99.90
6106;DHT22;3083;51.508;7.966;2023-06-14T11:00:10;24.70;99.90
6106;DHT22;3083;51.508;7.966;2023-06-14T11:05:53;24.70;99.90
6106;DHT22;3083;51.508;7.966;2023-06-14T11:11:22;24.50;99.90
6106;DHT22;3083;51.508;7.966;2023-06-14T11:13:49;24.70;99.90
6106;DHT22;3083;51.508;7.966;2023-06-14T11:16:18;24.90;99.90
6106;DHT22;3083;51.508;7.966;2023-06-14T11:18:45;24.80;99.90
6106;DHT22;3083;51.508;7.966;2023-06-14T11:21:17;24.80;99.90
6106;DHT22;3083;51.508;7.966;2023-06-14T11:23:49;24.70;99.90
6106;DHT22;3083;51.508;7.966;2023-06-14T11:26:25;24.70;99.90
6106;DHT22;3083;51.508;7.966;2023-06-14T11:28:55;24.70;99.90
6106;DHT22;3083;51.508;7.966;2023-06-14T11:31:23;24.70;99.90
6106;DHT22;3083;51.508;7.966;2023-06-14T11:33:50;24.90;99.90
6106;DHT22;3083;51.508;7.966;2023-06-14T11:36:21;25.00;99.90
6106;DHT22;3083;51.508;7.966;2023-06-14T11:38:48;25.00;99.90
6106;DHT22;3083;51.508;7.966;2023-06-14T11:41:15;25.00;99.90
6106;DHT22;3083;51.508;7.966;2023-06-14T11:43:41;25.00;99.90
6106;DHT22;3083;51.508;7.966;2023-06-14T11:46:13;25.20;99.90
6106;DHT22;3083;51.508;7.966;2023-06-14T11:48:42;25.40;99.90
6106;DHT22;3083;51.508;7.966;2023-06-14T11:51:09;25.20;99.90
6106;DHT22;3083;51.508;7.966;2023-06-14T11:53:38;25.20;99.90
6106;DHT22;3083;51.508;7.966;2023-06-14T11:56:05;25.40;99.90
6106;DHT22;3083;51.508;7.966;2023-06-14T11:58:32;25.50;99.90
6106;DHT22;3083;51.508;7.966;2023-06-14T12:00:59;25.50;99.90
6106;DHT22;3083;51.508;7.966;2023-06-14T12:03:28;25.40;99.90
6106;DHT22;3083;51.508;7.966;2023-06-14T12:06:05;25.40;99.90
6106;DHT22;3083;51.508;7.966;2023-06-14T12:08:33;25.40;99.90
6106;DHT22;3083;51.508;7.966;2023-06-14T12:11:05;25.20;99.90
6106;DHT22;3083;51.508;7.966;2023-06-14T12:13:34;25.20;99.90
6106;DHT22;3083;51.508;7.966;2023-06-14T12:16:01;25.10;99.90
6106;DHT22;3083;51.508;7.966;2023-06-14T12:18:33;25.20;99.90
6106;DHT22;3083;51.508;7.966;2023-06-14T12:21:01;25.20;99.90
6106;DHT22;3083;51.508;7.966;2023-06-14T12:23:39;25.40;99.90
6106;DHT22;3083;51.508;7.966;2023-06-14T12:26:07;25.30;99.90
6106;DHT22;3083;51.508;7.966;2023-06-14T12:28:34;25.30;99.90
6106;DHT22;3083;51.508;7.966;2023-06-14T12:31:01;25.30;99.90
6106;DHT22;3083;51.508;7.966;2023-06-14T12:33:28;25.20;99.90
6106;DHT22;3083;51.508;7.966;2023-06-14T12:35:55;25.20;99.90
6106;DHT22;3083;51.508;7.966;2023-06-14T12:38:23;25.10;99.90
6106;DHT22;3083;51.508;7.966;2023-06-14T12:40:50;24.90;99.90
6106;DHT22;3083;51.508;7.966;2023-06-14T12:43:19;24.80;99.90
6106;DHT22;3083;51.508;7.966;2023-06-14T12:45:46;24.70;99.90
6106;DHT22;3083;51.508;7.966;2023-06-14T12:48:13;24.80;99.90
6106;DHT22;3083;51.508;7.966;2023-06-14T12:50:40;24.90;99.90
6106;DHT22;3083;51.508;7.966;2023-06-14T12:53:07;25.10;99.90
6106;DHT22;3083;51.508;7.966;2023-06-14T12:55:34;25.20;99.90
6106;DHT22;3083;51.508;7.966;2023-06-14T12:58:01;25.30;99.90
6106;DHT22;3083;51.508;7.966;2023-06-14T13:00:29;25.30;99.90
6106;DHT22;3083;51.508;7.966;2023-06-14T13:02:56;25.10;99.90
6106;DHT22;3083;51.508;7.966;2023-06-14T13:05:23;25.00;99.90
6106;DHT22;3083;51.508;7.966;2023-06-14T13:07:50;24.90;99.90
6106;DHT22;3083;51.508;7.966;2023-06-14T13:10:17;24.90;99.90
6106;DHT22;3083;51.508;7.966;2023-06-14T13:12:44;25.00;99.90
6106;DHT22;3083;51.508;7.966;2023-06-14T13:15:11;25.00;99.90
6106;DHT22;3083;51.508;7.966;2023-06-14T13:17:39;25.10;99.90
6106;DHT22;3083;51.508;7.966;2023-06-14T13:20:08;25.20;99.90
6106;DHT22;3083;51.508;7.966;2023-06-14T13:22:35;25.30;99.90
6106;DHT22;3083;51.508;7.966;2023-06-14T13:25:02;25.30;99.90
6106;DHT22;3083;51.508;7.966;2023-06-14T13:27:30;25.20;99.90
6106;DHT22;3083;51.508;7.966;2023-06-14T13:29:57;25.20;99.90
6106;DHT22;3083;51.508;7.966;2023-06-14T13:32:24;25.30;99.90
6106;DHT22;3083;51.508;7.966;2023-06-14T13:34:52;25.30;99.90
6106;DHT22;3083;51.508;7.966;2023-06-14T13:37:19;25.40;99.90
6106;DHT22;3083;51.508;7.966;2023-06-14T13:39:46;25.40;99.90
6106;DHT22;3083;51.508;7.966;2023-06-14T13:42:12;25.50;99.90
6106;DHT22;3083;51.508;7.966;2023-06-14T13:44:39;25.50;99.90
6106;DHT22;3083;51.508;7.966;2023-06-14T13:47:06;25.40;99.90
6106;DHT22;3083;51.508;7.966;2023-06-14T13:49:33;25.40;99.90
6106;DHT22;3083;51.508;7.966;2023-06-14T13:52:02;25.40;99.90
6106;DHT22;3083;51.508;7.966;2023-06-14T13:54:30;25.40;99.90
6106;DHT22;3083;51.508;7.966;2023-06-14T13:56:56;25.50;99.90
6106;DHT22;3083;51.508;7.966;2023-06-14T13:59:24;25.50;99.90
6106;DHT22;3083;51.508;7.966;2023-06-14T14:01:50;25.50;99.90
6106;DHT22;3083;51.508;7.966;2023-06-14T14:04:17;25.60;99.90
6106;DHT22;3083;51.508;7.966;2023-06-14T14:06:44;25.60;99.90
6106;DHT22;3083;51.508;7.966;2023-06-14T14:09:13;25.50;99.90
6106;DHT22;3083;51.508;7.966;2023-06-14T14:11:40;25.40;99.90
6106;DHT22;3083;51.508;7.966;2023-06-14T14:14:07;25.40;99.90
6106;DHT22;3083;51.508;7.966;2023-06-14T14:16:36;25.40;99.90
6106;DHT22;3083;51.508;7.966;2023-06-14T14:19:03;25.40;99.90
6106;DHT22;3083;51.508;7.966;2023-06-14T14:21:30;25.40;99.90
6106;DHT22;3083;51.508;7.966;2023-06-14T14:23:57;25.40;99.90
6106;DHT22;3083;51.508;7.966;2023-06-14T14:26:25;25.30;99.90
6106;DHT22;3083;51.508;7.966;2023-06-14T14:28:52;25.20;99.90
6106;DHT22;3083;51.508;7.966;2023-06-14T14:31:19;25.20;99.90
6106;DHT22;3083;51.508;7.966;2023-06-14T14:33:46;25.20;99.90
6106;DHT22;3083;51.508;7.966;2023-06-14T14:36:13;25.10;99.90
6106;DHT22;3083;51.508;7.966;2023-06-14T14:38:40;25.00;99.90
6106;DHT22;3083;51.508;7.966;2023-06-14T14:41:07;24.90;99.90
6106;DHT22;3083;51.508;7.966;2023-06-14T14:43:36;25.00;99.90
6106;DHT22;3083;51.508;7.966;2023-06-14T14:46:02;25.00;99.90
6106;DHT22;3083;51.508;7.966;2023-06-14T14:48:29;24.90;99.90
6106;DHT22;3083;51.508;7.966;2023-06-14T14:50:56;24.90;99.90
6106;DHT22;3083;51.508;7.966;2023-06-14T14:53:23;24.90;99.90
6106;DHT22;3083;51.508;7.966;2023-06-14T14:55:50;25.00;99.90
6106;DHT22;3083;51.508;7.966;2023-06-14T14:58:17;25.10;99.90
6106;DHT22;3083;51.508;7.966;2023-06-14T15:00:45;25.10;99.90
6106;DHT22;3083;51.508;7.966;2023-06-14T15:03:12;25.10;99.90
6106;DHT22;3083;51.508;7.966;2023-06-14T15:05:39;25.10;99.90
6106;DHT22;3083;51.508;7.966;2023-06-14T15:08:06;25.10;99.90
6106;DHT22;3083;51.508;7.966;2023-06-14T15:10:37;25.20;99.90
6106;DHT22;3083;51.508;7.966;2023-06-14T15:13:06;25.20;99.90
6106;DHT22;3083;51.508;7.966;2023-06-14T15:15:33;25.30;99.90
6106;DHT22;3083;51.508;7.966;2023-06-14T15:18:02;25.40;99.90
6106;DHT22;3083;51.508;7.966;2023-06-14T15:20:29;25.40;99.90
6106;DHT22;3083;51.508;7.966;2023-06-14T15:22:56;25.40;99.90
6106;DHT22;3083;51.508;7.966;2023-06-14T15:25:25;25.30;99.90
6106;DHT22;3083;51.508;7.966;2023-06-14T15:27:52;25.20;99.90
6106;DHT22;3083;51.508;7.966;2023-06-14T15:30:20;24.90;99.90
6106;DHT22;3083;51.508;7.966;2023-06-14T15:32:47;24.60;99.90
6106;DHT22;3083;51.508;7.966;2023-06-14T15:35:16;24.30;99.90
6106;DHT22;3083;51.508;7.966;2023-06-14T15:37:43;24.10;99.90
6106;DHT22;3083;51.508;7.966;2023-06-14T15:40:11;24.00;99.90
6106;DHT22;3083;51.508;7.966;2023-06-14T15:42:38;24.00;99.90
6106;DHT22;3083;51.508;7.966;2023-06-14T15:45:05;24.20;99.90
6106;DHT22;3083;51.508;7.966;2023-06-14T15:47:32;24.50;99.90
6106;DHT22;3083;51.508;7.966;2023-06-14T15:49:59;24.70;99.90
6106;DHT22;3083;51.508;7.966;2023-06-14T15:52:27;24.90;99.90
6106;DHT22;3083;51.508;7.966;2023-06-14T15:54:54;24.90;99.90
6106;DHT22;3083;51.508;7.966;2023-06-14T15:57:21;24.80;99.90
6106;DHT22;3083;51.508;7.966;2023-06-14T15:59:48;24.50;99.90
6106;DHT22;3083;51.508;7.966;2023-06-14T16:02:15;24.40;99.90
6106;DHT22;3083;51.508;7.966;2023-06-14T16:04:42;24.40;99.90
6106;DHT22;3083;51.508;7.966;2023-06-14T16:07:09;24.30;99.90
6106;DHT22;3083;51.508;7.966;2023-06-14T16:09:39;24.20;99.90
6106;DHT22;3083;51.508;7.966;2023-06-14T16:12:07;24.30;99.90
6106;DHT22;3083;51.508;7.966;2023-06-14T16:14:34;24.30;99.90
6106;DHT22;3083;51.508;7.966;2023-06-14T16:17:01;24.20;99.90